Wargrave, United Kingdom
Current Conditions -  °F | °C
As of 8:50 AM on Sunday 23 Nov 2014 (Local Time) from EGUB Reporting Station
Moderate Rain Moderate Rain  
Wind Chill:   Ceiling: 5000
Heat Index:   Visibility: 4mi
Dew Point:   Wind: 9mph
Humidity: 93%   Direction: 310°NW
Pressure: 30.03"   Gusts: NA
Location:  51.5°N, 0.87°W
Report Text: EGUB 230850Z 31008KT 7000 RA FEW009 BKN050 08/07 Q1017 WHT NOSIG
Loading
Personal Weather Stations






























Interactive Weather Map New forecast layout! Learn more

10-Day Weather Forecast

Advertisements
Track Severe Weather on mobile